Time;durP1;ratioP1;P1;durP2;ratioP2;P2;SDS_P1;SDS_P2;PMS_P1;PMS_P2;Temp;Humidity;BMP_temperature;BMP_pressure;BME280_temperature;BME280_humidity;BME280_pressure;Samples;Min_cycle;Max_cycle;Signal;HPM_P1;HPM_P2
2022/05/08 00:02:26;;;;;;;19.67;17.77;;;11.60;92.70;;;10.49;85.28;98503.88;5078538;28;20515;-72
2022/05/08 00:04:53;;;;;;;19.40;17.60;;;11.60;92.70;;;10.44;85.65;98494.69;5077306;28;20474;-69
2022/05/08 00:07:22;;;;;;;17.97;16.33;;;11.50;92.70;;;10.35;86.32;98491.31;5076642;28;20466;-69
2022/05/08 00:09:50;;;;;;;19.07;17.27;;;11.40;93.10;;;10.21;87.14;98493.97;5078210;28;20556;-69
2022/05/08 00:12:18;;;;;;;18.97;17.27;;;11.30;93.50;;;10.11;87.55;98490.81;5077913;28;20504;-72
2022/05/08 00:14:46;;;;;;;19.60;17.80;;;11.20;94.10;;;9.96;87.48;98496.34;5077473;28;20467;-67
2022/05/08 00:17:14;;;;;;;19.20;17.30;;;11.10;94.60;;;9.97;88.82;98483.69;5075100;28;20535;-67
2022/05/08 00:19:45;;;;;;;19.87;18.17;;;11.10;95.90;;;10.19;86.84;98490.63;5077212;28;20472;-71
2022/05/08 00:22:12;;;;;;;17.10;15.63;;;11.20;94.60;;;10.11;87.56;98489.97;5078156;28;20539;-68
2022/05/08 00:24:39;;;;;;;20.40;18.60;;;11.20;94.90;;;10.07;87.51;98489.53;5076825;28;20805;-71
2022/05/08 00:27:08;;;;;;;20.20;18.40;;;11.10;95.30;;;10.06;88.33;98486.03;5078411;28;20575;-71
2022/05/08 00:29:35;;;;;;;20.00;18.00;;;11.10;95.10;;;10.12;87.07;98484.38;5074365;28;20478;-69
2022/05/08 00:32:02;;;;;;;19.97;18.17;;;11.20;94.90;;;10.15;87.04;98483.97;5080184;28;20942;-74
2022/05/08 00:34:29;;;;;;;21.07;18.97;;;11.20;94.50;;;9.99;87.53;98482.44;5077917;28;20474;-69
2022/05/08 00:36:58;;;;;;;20.57;18.63;;;11.20;94.10;;;9.53;88.67;98416.41;5080698;28;20537;-67
2022/05/08 00:39:25;;;;;;;18.97;17.27;;;11.00;95.20;;;9.85;88.21;98481.56;5086523;28;20947;-69
2022/05/08 00:41:52;;;;;;;19.33;17.63;;;11.00;95.40;;;9.77;88.39;98479.00;5085330;28;20541;-70
2022/05/08 00:44:19;;;;;;;19.47;17.77;;;10.90;95.70;;;9.68;89.11;98480.22;5076976;28;20465;-70
2022/05/08 00:46:48;;;;;;;21.57;19.67;;;10.80;96.00;;;9.55;90.21;98481.78;5076374;28;20467;-68
2022/05/08 00:49:16;;;;;;;19.03;17.43;;;10.70;97.00;;;9.46;90.39;98481.13;5082890;28;22133;-68
2022/05/08 00:51:47;;;;;;;20.20;18.40;;;10.60;99.20;;;9.39;91.17;98479.41;5078822;28;20580;-66
2022/05/08 00:54:17;;;;;;;20.27;18.47;;;10.50;99.60;;;9.33;92.30;98487.25;5090266;28;20496;-72
2022/05/08 00:56:44;;;;;;;20.90;18.90;;;10.50;99.90;;;9.35;91.66;98490.59;5072038;28;20456;-66
2022/05/08 00:59:11;;;;;;;19.10;17.40;;;10.40;99.90;;;9.57;91.06;98484.31;5080494;28;20546;-70
2022/05/08 01:01:38;;;;;;;19.07;17.37;;;10.50;99.90;;;9.47;91.34;98480.06;5087123;28;20482;-72
2022/05/08 01:04:05;;;;;;;18.70;16.80;;;10.50;99.90;;;9.37;91.22;98478.75;5085933;28;20533;-67
2022/05/08 01:06:33;;;;;;;20.43;18.50;;;10.50;99.90;;;9.35;91.98;98481.66;5084106;28;21010;-71
2022/05/08 01:09:01;;;;;;;20.00;17.93;;;10.50;99.90;;;9.33;91.78;98484.56;5080552;28;20469;-72
2022/05/08 01:11:29;;;;;;;19.13;17.47;;;10.40;99.90;;;9.28;92.52;98489.69;5077864;28;20460;-70
2022/05/08 01:13:57;;;;;;;17.87;16.27;;;10.40;99.90;;;9.36;91.25;98483.31;5081846;28;20951;-67
2022/05/08 01:16:24;;;;;;;20.40;18.37;;;10.50;99.90;;;8.89;91.81;98442.53;5080438;28;20472;-69
2022/05/08 01:18:52;;;;;;;20.60;18.80;;;10.30;99.90;;;9.04;92.91;98489.09;5081289;28;20931;-71
2022/05/08 01:21:23;;;;;;;20.67;18.70;;;10.20;99.90;;;8.93;93.86;98484.22;5077576;28;21283;-69
2022/05/08 01:23:51;;;;;;;21.20;19.40;;;10.10;99.90;;;9.17;93.39;98485.66;5085727;28;20488;-67
2022/05/08 01:26:22;;;;;;;20.03;18.17;;;10.10;99.90;;;9.23;91.88;98484.06;5076784;28;20481;-68
2022/05/08 01:28:49;;;;;;;21.73;19.77;;;10.20;99.90;;;8.98;92.95;98487.16;5080454;28;21082;-68
2022/05/08 01:31:16;;;;;;;22.97;19.00;;;10.20;99.90;;;8.79;93.79;98483.25;5079299;28;20464;-75
2022/05/08 01:33:43;;;;;;;21.50;19.60;;;10.00;99.90;;;8.81;93.77;98491.13;5083284;28;20452;-69
2022/05/08 01:36:10;;;;;;;20.90;19.00;;;9.90;99.90;;;8.85;94.26;98487.03;5083060;28;20540;-73
2022/05/08 01:38:38;;;;;;;21.37;19.53;;;9.90;99.90;;;8.70;93.84;98484.41;5092382;27;20464;-68
2022/05/08 01:41:06;;;;;;;19.43;17.73;;;9.90;99.90;;;8.72;94.24;98485.91;5080155;28;20519;-76
2022/05/08 01:43:36;;;;;;;20.70;18.73;;;9.80;99.90;;;8.65;94.33;98484.97;5086457;28;20458;-74
2022/05/08 01:46:03;;;;;;;22.07;19.97;;;9.80;99.90;;;8.55;94.87;98488.00;5079960;28;20529;-71
2022/05/08 01:48:30;;;;;;;21.70;19.60;;;9.70;99.90;;;8.54;95.15;98488.16;5079293;28;20507;-71
2022/05/08 01:50:59;;;;;;;20.23;18.30;;;9.60;99.90;;;8.49;95.15;98473.41;5080453;28;20447;-69
2022/05/08 01:53:28;;;;;;;20.37;18.47;;;9.60;99.90;;;8.71;94.16;98481.50;5080390;28;20517;-69
2022/05/08 01:55:56;;;;;;;21.43;19.30;;;9.70;99.90;;;8.62;94.34;98477.28;5076220;28;20539;-70
2022/05/08 01:58:27;;;;;;;21.77;19.80;;;9.70;99.90;;;8.49;95.13;98481.47;5078619;28;20915;-75
2022/05/08 02:00:55;;;;;;;20.63;18.70;;;9.60;99.90;;;8.50;96.01;98491.25;5080786;28;20496;-68
2022/05/08 02:03:25;;;;;;;19.40;17.80;;;9.60;99.90;;;8.55;95.50;98490.69;5080139;28;20459;-76
2022/05/08 02:05:52;;;;;;;19.30;17.50;;;9.60;99.90;;;8.57;94.99;98495.84;5077477;28;20574;-71
2022/05/08 02:08:20;;;;;;;20.87;18.97;;;9.70;99.90;;;8.66;94.45;98491.22;5079575;28;20585;-70
2022/05/08 02:10:47;;;;;;;20.57;18.57;;;9.70;99.90;;;8.67;94.19;98482.94;5077544;28;20459;-70
2022/05/08 02:13:15;;;;;;;19.70;17.87;;;9.80;99.90;;;8.57;94.41;98493.16;5085497;28;20601;-69
2022/05/08 02:15:43;;;;;;;20.47;18.67;;;9.80;99.90;;;8.72;94.57;98491.28;5086913;28;21038;-68
2022/05/08 02:18:11;;;;;;;19.67;17.87;;;9.80;99.90;;;8.67;94.52;98501.78;5085668;28;20456;-68
2022/05/08 02:20:39;;;;;;;20.73;17.67;;;9.80;99.90;;;8.52;94.82;98483.00;5084260;28;20542;-69
2022/05/08 02:23:07;;;;;;;19.90;18.13;;;9.80;99.90;;;8.42;94.89;98477.88;5080374;28;20935;-68
2022/05/08 02:25:35;;;;;;;20.30;18.50;;;9.70;99.90;;;8.56;95.29;98495.03;5076895;28;20471;-68
2022/05/08 02:28:02;;;;;;;20.63;18.73;;;9.60;99.90;;;8.61;95.02;98486.41;5079904;28;20523;-71
2022/05/08 02:30:29;;;;;;;20.53;18.73;;;9.70;99.90;;;8.52;94.78;98490.22;5081614;28;20531;-66
2022/05/08 02:32:57;;;;;;;21.50;19.50;;;9.70;99.90;;;8.29;95.60;98493.88;5084577;28;20503;-73
2022/05/08 02:35:25;;;;;;;21.20;19.00;;;9.50;99.90;;;8.24;96.63;98486.38;5079348;28;20464;-67
2022/05/08 02:37:55;;;;;;;21.07;19.17;;;9.40;99.90;;;8.30;96.49;98485.59;5079396;28;20486;-72
2022/05/08 02:40:23;;;;;;;22.23;20.20;;;9.40;99.90;;;8.02;97.48;98480.09;5084961;28;20452;-70
2022/05/08 02:42:50;;;;;;;22.33;20.23;;;9.30;99.90;;;7.92;98.39;98489.28;5077067;28;20560;-69
2022/05/08 02:45:19;;;;;;;22.40;20.37;;;9.20;99.90;;;7.94;98.73;98492.63;5078093;28;20443;-67
2022/05/08 02:47:46;;;;;;;22.20;20.10;;;9.10;99.90;;;7.90;98.20;98479.75;5102907;27;21018;-68
2022/05/08 02:50:15;;;;;;;22.70;20.47;;;9.10;99.90;;;8.01;98.01;98492.69;5087749;28;20463;-66
2022/05/08 02:52:43;;;;;;;20.77;18.67;;;9.10;99.90;;;7.91;98.33;98493.00;5084989;28;20454;-68
2022/05/08 03:00:44;;;;;;;22.10;19.90;;;9.00;99.90;;;7.73;99.71;98490.66;5084521;28;20454;-71
2022/05/08 03:03:12;;;;;;;22.50;20.40;;;9.00;99.90;;;7.61;100.00;98493.00;5071920;28;20465;-74
2022/05/08 03:05:45;;;;;;;22.67;20.47;;;8.80;99.90;;;7.68;100.00;98498.47;5088297;28;20530;-69
2022/05/08 03:08:15;;;;;;;24.27;21.97;;;8.80;99.90;;;7.89;98.40;98494.22;5080074;28;20507;-71
2022/05/08 03:13:26;;;;;;;23.80;21.70;;;9.00;99.90;;;7.76;99.04;98494.84;5081360;28;20461;-68
2022/05/08 03:15:53;;;;;;;23.70;21.17;;;8.90;99.90;;;7.71;98.69;98498.09;5088710;28;20571;-69
2022/05/08 03:18:21;;;;;;;23.53;21.10;;;8.80;99.90;;;7.70;98.33;98495.59;5082372;28;20947;-68
2022/05/08 03:21:10;;;;;;;21.90;19.87;;;8.80;99.90;;;7.53;99.47;98494.94;5082221;28;21036;-73
2022/05/08 03:23:38;;;;;;;21.03;18.97;;;8.70;99.90;;;7.37;99.88;98491.41;5081991;28;20544;-69
2022/05/08 03:26:05;;;;;;;23.13;20.83;;;8.60;99.90;;;7.44;100.00;98499.56;5081231;28;20498;-68
2022/05/08 03:28:33;;;;;;;21.23;19.30;;;8.60;99.90;;;7.52;100.00;98504.88;5080370;28;20477;-69
2022/05/08 03:31:01;;;;;;;21.73;19.53;;;8.60;99.90;;;7.42;100.00;98498.91;5081052;28;20537;-70
2022/05/08 03:33:29;;;;;;;22.60;20.50;;;8.60;99.90;;;7.44;100.00;98496.88;5081021;28;20809;-67
2022/05/08 03:35:58;;;;;;;22.50;20.30;;;8.60;99.90;;;7.34;100.00;98492.59;5077773;28;20464;-75
2022/05/08 03:38:27;;;;;;;24.10;21.87;;;8.50;99.90;;;7.43;100.00;98503.28;5078650;28;20960;-67
2022/05/08 03:40:55;;;;;;;23.57;21.47;;;8.60;99.90;;;7.40;100.00;98503.66;5081448;28;20958;-72
2022/05/08 03:43:22;;;;;;;23.23;20.93;;;8.50;99.90;;;7.47;100.00;98502.72;5080732;28;20475;-68
2022/05/08 03:45:50;;;;;;;22.40;20.20;;;8.60;99.90;;;7.40;100.00;98507.16;5097020;28;20575;-67
2022/05/08 03:48:18;;;;;;;24.10;21.80;;;8.60;99.90;;;7.42;100.00;98504.28;5088387;28;20502;-68
2022/05/08 03:50:45;;;;;;;21.73;19.67;;;8.60;99.90;;;7.51;100.00;98503.19;5087397;28;20540;-68
2022/05/08 03:53:14;;;;;;;23.17;20.77;;;8.60;99.90;;;7.56;99.28;98503.47;5087169;28;20442;-67
2022/05/08 03:55:41;;;;;;;22.17;20.07;;;8.70;99.90;;;7.59;99.30;98511.16;5086255;28;20469;-69
2022/05/08 03:58:08;;;;;;;22.90;20.60;;;8.70;99.90;;;7.75;99.00;98507.47;5083102;28;20489;-69
2022/05/08 04:00:35;;;;;;;21.93;19.77;;;8.80;99.90;;;7.71;98.69;98510.72;5078276;28;21054;-71
2022/05/08 04:03:02;;;;;;;22.53;20.43;;;8.90;99.90;;;7.63;99.34;98507.09;5083715;28;21450;-67
2022/05/08 04:05:29;;;;;;;20.87;18.97;;;8.80;99.90;;;7.65;99.63;98518.50;5080021;28;20451;-71
2022/05/08 04:07:57;;;;;;;22.17;20.17;;;8.90;99.90;;;7.65;99.87;98520.34;5081993;28;20708;-67
2022/05/08 04:10:25;;;;;;;22.67;20.33;;;8.90;99.90;;;7.70;99.77;98522.50;5079315;28;20948;-73
2022/05/08 04:12:52;;;;;;;23.57;21.43;;;8.90;99.90;;;8.01;98.66;98522.31;5081553;28;20455;-70
2022/05/08 04:18:04;;;;;;;22.73;20.73;;;9.20;99.90;;;8.27;96.25;98528.25;5084707;28;20483;-70
2022/05/08 04:20:31;;;;;;;21.70;19.80;;;9.40;99.90;;;8.25;95.90;98530.25;5082785;28;20916;-68
2022/05/08 04:25:53;;;;;;;20.80;18.80;;;9.50;99.90;;;8.63;95.19;98532.81;5057384;28;20545;-70
2022/05/08 04:28:20;;;;;;;22.03;20.03;;;9.80;99.90;;;9.58;90.88;98535.34;5085922;28;20560;-67
2022/05/08 04:30:48;;;;;;;19.97;17.97;;;10.60;99.80;;;10.15;84.87;98532.59;5082923;28;20458;-68
2022/05/08 04:33:15;;;;;;;18.57;16.97;;;11.50;91.40;;;11.03;82.16;98533.72;5087036;28;20463;-68
2022/05/08 04:35:42;;;;;;;18.37;16.77;;;12.40;87.20;;;11.86;76.95;98528.09;5081656;28;20590;-69
2022/05/08 04:38:11;;;;;;;17.53;15.87;;;13.30;83.70;;;11.99;74.82;98528.06;5088835;28;20929;-66
2022/05/08 04:40:41;;;;;;;15.80;14.33;;;13.80;81.10;;;12.30;73.17;98483.19;5087318;28;20474;-71
2022/05/08 04:43:09;;;;;;;14.60;13.30;;;14.20;80.50;;;13.07;70.76;98527.59;5089111;28;20449;-70
2022/05/08 04:45:37;;;;;;;14.60;13.30;;;14.90;78.80;;;12.97;70.49;98530.81;5086700;28;20454;-72
2022/05/08 04:48:05;;;;;;;14.73;13.43;;;15.10;77.50;;;12.59;72.37;98531.63;5079591;28;20970;-66
2022/05/08 04:50:32;;;;;;;14.43;13.07;;;14.80;77.30;;;13.01;70.66;98523.88;5084191;28;20488;-69
2022/05/08 04:52:59;;;;;;;16.10;14.70;;;14.70;77.50;;;13.68;68.54;98521.69;5088561;28;20544;-70
2022/05/08 04:55:27;;;;;;;14.60;13.30;;;15.00;77.40;;;13.87;67.11;98520.66;5086544;28;20450;-68
2022/05/08 04:57:54;;;;;;;14.30;13.20;;;15.20;76.80;;;13.73;67.79;98532.75;5091335;28;20444;-67
2022/05/08 05:00:22;;;;;;;15.30;13.93;;;15.50;76.30;;;13.85;66.89;98533.66;5083895;28;20544;-79
2022/05/08 05:02:50;;;;;;;15.07;13.53;;;15.70;74.90;;;13.72;68.01;98525.63;5085382;28;20447;-68
2022/05/08 05:05:17;;;;;;;14.43;13.30;;;15.70;75.00;;;13.79;67.17;98536.44;5080278;28;20545;-69
2022/05/08 05:07:45;;;;;;;14.03;12.93;;;15.50;75.40;;;13.90;66.39;98535.69;5086182;28;21069;-71
2022/05/08 05:10:13;;;;;;;13.90;12.80;;;15.70;74.40;;;14.59;63.70;98540.13;5080627;28;21155;-69
2022/05/08 05:12:41;;;;;;;14.53;13.40;;;16.40;73.10;;;15.50;60.94;98530.28;5094045;28;20481;-72
2022/05/08 05:15:10;;;;;;;13.17;12.10;;;16.80;72.40;;;15.21;61.58;98554.59;5082101;28;20969;-70
2022/05/08 05:17:38;;;;;;;12.40;11.40;;;16.80;72.30;;;16.02;58.75;98548.69;5080918;28;20938;-75
2022/05/08 05:20:07;;;;;;;13.70;12.30;;;17.50;70.10;;;16.24;57.72;98548.91;5084252;28;20941;-68
2022/05/08 05:22:35;;;;;;;13.30;12.10;;;17.70;68.60;;;16.21;56.78;98556.72;5085345;28;20463;-71
2022/05/08 05:25:03;;;;;;;11.40;10.40;;;17.70;67.40;;;16.49;56.12;98552.41;5083425;28;20449;-76
2022/05/08 05:27:31;;;;;;;13.20;12.10;;;18.20;66.70;;;16.61;55.77;98547.75;5089918;28;20555;-71
2022/05/08 05:29:58;;;;;;;12.07;11.17;;;18.20;65.80;;;16.09;56.43;98543.91;5102689;28;20528;-67
2022/05/08 05:32:26;;;;;;;12.13;11.00;;;18.10;64.90;;;16.25;55.48;98536.91;5080825;28;20451;-75
2022/05/08 05:34:54;;;;;;;12.10;11.00;;;17.90;65.10;;;16.33;55.42;98543.91;5080600;28;20543;-71
2022/05/08 05:37:22;;;;;;;11.57;10.57;;;18.10;64.60;;;16.20;55.71;98538.69;5086582;28;20457;-72
2022/05/08 05:39:49;;;;;;;12.60;11.50;;;18.00;64.40;;;15.72;56.78;98538.72;5076473;28;20909;-72
2022/05/08 05:42:16;;;;;;;13.03;11.83;;;17.60;64.60;;;15.00;60.00;98546.72;5077032;28;20491;-66
2022/05/08 05:44:43;;;;;;;13.37;11.90;;;17.00;66.30;;;14.06;62.73;98545.16;5074219;28;20486;-71
2022/05/08 05:49:57;;;;;;;14.13;12.80;;;15.70;68.90;;;14.30;63.91;98538.00;5088744;28;20484;-73
2022/05/08 05:52:24;;;;;;;12.00;11.10;;;15.90;69.40;;;14.74;61.93;98542.50;5084104;28;20802;-73
2022/05/08 05:54:50;;;;;;;12.27;11.37;;;16.30;69.00;;;15.37;60.00;98542.19;5084897;28;20486;-67
2022/05/08 05:57:18;;;;;;;12.50;11.50;;;16.60;68.10;;;15.50;59.28;98550.16;5091364;28;20923;-72
2022/05/08 05:59:45;;;;;;;11.93;10.93;;;17.10;67.20;;;15.10;59.86;98545.34;5079155;28;20451;-72
2022/05/08 06:02:12;;;;;;;13.70;12.13;;;17.20;66.70;;;15.38;59.10;98552.03;5087352;28;20454;-71
2022/05/08 06:04:40;;;;;;;11.53;10.63;;;17.10;66.20;;;14.37;60.17;98556.94;5080754;28;20446;-78
2022/05/08 06:07:08;;;;;;;12.63;11.53;;;16.50;65.80;;;13.79;61.93;98550.00;5079696;28;20446;-74
2022/05/08 06:09:36;;;;;;;11.93;10.93;;;15.60;67.10;;;13.40;64.02;98550.94;5086768;28;20477;-75
2022/05/08 06:12:03;;;;;;;12.63;11.33;;;15.00;68.60;;;13.16;64.95;98563.44;5078535;28;20457;-75
2022/05/08 06:14:30;;;;;;;11.17;10.07;;;14.60;69.60;;;13.09;65.13;98558.06;5071672;28;20480;-76
2022/05/08 06:16:58;;;;;;;11.80;10.90;;;14.40;70.20;;;13.06;65.22;98568.50;5075834;28;20527;-77
2022/05/08 06:19:25;;;;;;;13.23;10.50;;;14.30;70.50;;;13.06;65.60;98557.66;5075879;28;20479;-76
2022/05/08 06:21:53;;;;;;;11.87;10.87;;;14.30;71.30;;;13.19;65.92;98563.00;5079276;28;20542;-76
2022/05/08 06:24:21;;;;;;;11.50;10.60;;;14.30;71.70;;;13.44;64.01;98562.22;5081546;28;20450;-76
2022/05/08 06:26:48;;;;;;;11.13;10.10;;;14.50;71.00;;;13.42;65.08;98564.28;5081409;28;20474;-75
2022/05/08 06:29:16;;;;;;;12.60;11.50;;;14.60;71.50;;;13.54;64.50;98567.97;5082187;28;20562;-78
2022/05/08 06:31:46;;;;;;;11.73;10.93;;;14.60;71.40;;;13.49;64.47;98565.09;5075353;28;20799;-77
2022/05/08 06:34:14;;;;;;;11.70;10.70;;;14.60;71.20;;;13.24;64.67;98563.16;5078586;28;20557;-77
2022/05/08 06:36:41;;;;;;;13.30;12.20;;;14.60;71.20;;;13.73;65.59;98558.00;5076633;28;21159;-79
2022/05/08 06:39:08;;;;;;;13.63;12.47;;;14.70;72.50;;;14.03;65.63;98561.91;5084478;28;20958;-80
2022/05/08 06:41:37;;;;;;;12.60;11.50;;;14.90;73.50;;;13.93;66.08;98556.97;5071855;28;20452;-78
2022/05/08 06:44:05;;;;;;;14.87;13.40;;;15.00;73.30;;;13.85;65.49;98552.66;5080794;28;20466;-78
2022/05/08 06:46:36;;;;;;;12.50;11.50;;;15.00;73.00;;;13.79;65.63;98559.00;5074899;28;20535;-77
2022/05/08 06:49:04;;;;;;;13.27;11.97;;;15.00;72.80;;;13.71;65.99;98565.53;5073601;28;20516;-77
2022/05/08 06:51:31;;;;;;;13.53;11.90;;;14.90;73.10;;;13.74;66.03;98537.94;5074172;28;20472;-80
2022/05/08 06:53:58;;;;;;;13.53;12.30;;;14.90;73.70;;;13.83;65.20;98546.63;5098480;28;20476;-80
2022/05/08 06:56:26;;;;;;;13.70;12.60;;;15.00;72.90;;;13.89;65.58;98550.34;5090659;28;20443;-82
2022/05/08 07:01:39;;;;;;;15.60;14.10;;;15.00;73.30;;;14.01;65.49;98564.00;5094081;28;20444;-78
2022/05/08 07:04:10;;;;;;;14.90;13.70;;;15.10;73.30;;;14.05;64.96;98576.09;5082419;28;20813;-77
2022/05/08 07:06:38;;;;;;;14.63;13.30;;;15.10;72.80;;;13.61;65.08;98532.63;5076289;28;20547;-79
2022/05/08 07:09:06;;;;;;;13.90;12.47;;;15.00;72.80;;;13.81;64.87;98558.78;5084084;28;20493;-78
2022/05/08 07:11:35;;;;;;;15.20;14.00;;;15.00;72.60;;;13.80;65.61;98576.94;5076309;28;20456;-77
2022/05/08 07:14:03;;;;;;;14.43;12.93;;;14.90;73.00;;;13.84;65.01;98567.28;5074447;28;20562;-76
2022/05/08 07:16:31;;;;;;;14.10;12.80;;;14.90;72.80;;;13.74;65.86;98545.25;5076466;28;20466;-78
2022/05/08 07:18:59;;;;;;;16.50;12.90;;;14.90;73.40;;;14.03;65.37;98572.78;5088690;28;20490;-77
2022/05/08 07:21:26;;;;;;;17.60;13.70;;;15.10;73.60;;;14.20;65.10;98566.75;5070233;28;20466;-77
2022/05/08 07:23:55;;;;;;;13.73;12.53;;;15.20;73.50;;;14.28;64.60;98574.59;5077360;28;20456;-73
2022/05/08 07:26:22;;;;;;;14.53;13.17;;;15.30;73.10;;;14.44;64.81;98576.69;5081598;28;20450;-73
2022/05/08 07:28:50;;;;;;;13.97;12.77;;;15.40;73.50;;;14.31;64.81;98569.53;5077978;28;20498;-73
2022/05/08 07:31:19;;;;;;;13.50;12.40;;;15.40;73.40;;;14.65;64.12;98584.63;5076270;28;20459;-72
2022/05/08 07:33:46;;;;;;;13.13;12.13;;;15.50;73.30;;;14.70;63.31;98582.88;5084653;28;20520;-74
2022/05/08 07:36:15;;;;;;;13.30;12.20;;;15.70;72.60;;;14.69;63.87;98572.22;5085207;28;20458;-79
2022/05/08 07:38:47;;;;;;;12.83;11.57;;;15.70;73.10;;;14.90;62.96;98584.53;5087799;28;20525;-74
2022/05/08 07:41:17;;;;;;;12.63;11.60;;;15.90;72.30;;;15.11;62.34;98588.66;5085688;28;20446;-74
2022/05/08 07:43:46;;;;;;;12.87;11.77;;;16.00;72.00;;;15.17;61.89;98586.09;5082953;28;20527;-72
2022/05/08 07:46:14;;;;;;;13.60;12.30;;;16.10;71.50;;;15.22;61.71;98584.28;5082537;28;20518;-73
2022/05/08 07:48:45;;;;;;;13.23;12.13;;;16.20;71.40;;;15.39;61.35;98594.53;5083491;28;20463;-74
2022/05/08 07:51:13;;;;;;;14.30;13.20;;;16.30;71.70;;;15.43;61.93;98595.72;5081954;28;20466;-71
2022/05/08 07:53:40;;;;;;;14.10;12.90;;;16.40;72.10;;;15.41;62.47;98595.16;5085626;28;20958;-78
2022/05/08 07:56:10;;;;;;;13.83;12.63;;;16.40;72.40;;;15.39;62.57;98581.75;5074600;28;20459;-71
2022/05/08 07:58:37;;;;;;;15.43;14.07;;;16.40;72.30;;;15.70;62.00;98589.88;5075152;28;20466;-73
2022/05/08 08:01:05;;;;;;;15.13;13.90;;;16.60;72.40;;;15.80;62.29;98601.00;5073684;28;20482;-73
2022/05/08 08:03:34;;;;;;;14.90;13.67;;;16.70;72.40;;;15.90;62.24;98594.16;5084023;28;20466;-74
2022/05/08 08:06:04;;;;;;;15.17;13.87;;;16.80;72.60;;;16.05;61.00;98597.25;5084332;28;20447;-72
2022/05/08 08:08:32;;;;;;;14.10;13.00;;;16.90;72.00;;;16.18;60.28;98593.44;5079113;28;20462;-78
2022/05/08 08:11:03;;;;;;;13.90;12.70;;;17.10;71.70;;;16.18;60.46;98592.63;5084553;28;20454;-77
2022/05/08 08:13:32;;;;;;;12.97;11.70;;;17.10;71.50;;;16.28;59.84;98595.56;5101543;28;20557;-80
2022/05/08 08:16:00;;;;;;;13.07;12.03;;;17.20;70.70;;;16.40;59.02;98596.38;5081735;28;20453;-76
2022/05/08 08:18:28;;;;;;;11.90;10.90;;;17.30;70.10;;;16.57;58.91;98599.22;5080030;28;20451;-82
2022/05/08 08:20:57;;;;;;;12.03;10.93;;;17.40;70.10;;;16.61;57.94;98602.31;5080455;28;20564;-75
2022/05/08 08:23:27;;;;;;;11.90;10.30;;;17.50;69.50;;;16.65;57.34;98600.75;5103380;28;20572;-74
2022/05/08 08:25:56;;;;;;;10.17;9.27;;;17.60;69.30;;;16.65;57.38;98598.00;5084658;28;21136;-73
2022/05/08 08:28:23;;;;;;;10.60;9.70;;;17.60;68.70;;;16.96;57.16;98598.63;5078560;28;20653;-78
2022/05/08 08:30:50;;;;;;;12.63;9.23;;;17.80;68.90;;;17.26;55.37;98600.31;5076398;28;20578;-78
2022/05/08 08:33:18;;;;;;;9.53;8.60;;;18.10;67.90;;;17.11;55.54;98591.84;5101244;27;20466;-76
2022/05/08 08:35:46;;;;;;;10.70;9.60;;;18.10;67.10;;;17.01;54.74;98594.34;5077986;28;20457;-78
2022/05/08 08:38:14;;;;;;;8.93;8.23;;;18.00;66.20;;;17.06;54.79;98608.09;5076474;28;20546;-76
2022/05/08 08:40:44;;;;;;;9.33;8.53;;;18.00;66.30;;;17.28;54.76;98602.78;5079347;28;20458;-76
2022/05/08 08:43:11;;;;;;;8.87;8.27;;;18.20;66.40;;;17.62;53.75;98602.00;5081818;28;20811;-85
2022/05/08 08:48:29;;;;;;;8.40;7.70;;;18.70;65.60;;;18.08;52.52;98593.75;5077764;28;20458;-81
2022/05/08 08:50:57;;;;;;;8.57;7.73;;;18.90;64.90;;;18.22;50.91;98583.28;5087945;28;20478;-79
2022/05/08 08:53:26;;;;;;;9.17;8.27;;;19.20;63.50;;;18.65;49.73;98595.34;5089257;28;20436;-80
2022/05/08 08:55:55;;;;;;;8.30;7.60;;;19.40;62.70;;;18.87;47.75;98589.00;5089827;28;20438;-80
2022/05/08 08:58:22;;;;;;;7.97;7.20;;;19.80;60.80;;;18.86;47.19;98587.34;5087158;28;20431;-80
2022/05/08 09:00:51;;;;;;;7.20;6.60;;;19.70;59.70;;;18.96;46.28;98582.00;5086667;28;20452;-79
2022/05/08 09:03:25;;;;;;;7.90;7.20;;;19.90;58.90;;;19.22;46.43;98587.78;5091940;28;20450;-81
2022/05/08 09:05:55;;;;;;;6.63;6.13;;;20.00;59.20;;;19.60;44.76;98589.78;5086949;28;20452;-78
2022/05/08 09:08:27;;;;;;;5.40;5.00;;;20.30;58.10;;;19.75;42.65;98589.09;5090909;28;20781;-81
2022/05/08 09:10:58;;;;;;;4.63;4.27;;;20.50;55.90;;;19.81;38.93;98591.59;5088459;28;20578;-79
2022/05/08 09:13:27;;;;;;;4.97;4.50;;;20.60;52.50;;;19.80;40.04;98573.50;5089930;28;20441;-79
2022/05/08 09:16:03;;;;;;;3.60;3.10;;;20.70;52.70;;;19.98;38.13;98589.81;5088571;28;20454;-76
2022/05/08 09:18:43;;;;;;;4.20;3.90;;;20.80;50.80;;;20.17;36.72;98592.97;5106905;28;20458;-79
2022/05/08 09:24:09;;;;;;;3.40;3.20;;;21.20;48.00;;;20.16;36.60;98585.84;5089775;28;20802;-79
2022/05/08 09:26:37;;;;;;;4.10;3.70;;;21.00;48.50;;;20.61;35.76;98581.69;5090875;28;20469;-78
2022/05/08 09:29:07;;;;;;;3.77;3.47;;;21.30;48.60;;;20.20;35.41;98575.97;5090503;28;20842;-80
2022/05/08 09:31:40;;;;;;;4.93;4.53;;;21.20;47.20;;;19.91;36.35;98579.03;5091481;28;20443;-79
2022/05/08 09:34:08;;;;;;;4.27;3.93;;;21.00;47.70;;;19.92;36.38;98588.94;5091535;28;20541;-81
2022/05/08 09:36:36;;;;;;;3.73;3.43;;;20.80;47.60;;;19.73;36.94;98594.81;5089274;28;20524;-80
2022/05/08 09:39:05;;;;;;;3.73;3.43;;;20.70;47.50;;;19.91;34.60;98588.13;5090676;28;20458;-80
2022/05/08 09:41:37;;;;;;;3.77;3.47;;;20.70;46.20;;;20.01;34.71;98581.91;5089099;28;20455;-81
2022/05/08 09:44:13;;;;;;;3.60;3.30;;;20.80;46.20;;;20.27;34.95;98582.06;5087891;28;20475;-80
2022/05/08 09:46:43;;;;;;;4.17;3.87;;;21.10;46.30;;;20.24;35.61;98575.19;5088295;28;20443;-79
2022/05/08 09:49:13;;;;;;;4.60;4.20;;;21.10;46.50;;;20.25;35.39;98584.25;5085524;28;20444;-79
2022/05/08 09:51:42;;;;;;;4.37;3.97;;;21.10;46.30;;;20.17;35.06;98582.00;5089195;28;20534;-78
2022/05/08 09:54:11;;;;;;;4.90;3.83;;;21.10;46.00;;;19.77;36.03;98579.50;5099652;28;20456;-78
2022/05/08 09:56:40;;;;;;;3.93;3.20;;;20.70;46.10;;;19.67;35.47;98513.66;5109419;28;20441;-78
2022/05/08 09:59:08;;;;;;;4.13;3.73;;;20.90;46.20;;;20.04;35.66;98586.03;5088490;28;20523;-78
2022/05/08 10:01:35;;;;;;;3.50;3.20;;;20.90;46.00;;;20.29;34.18;98579.03;5109773;28;20527;-80
2022/05/08 10:04:03;;;;;;;4.10;3.80;;;21.00;45.10;;;20.12;34.91;98582.78;5092871;28;20451;-80
2022/05/08 10:06:33;;;;;;;3.93;3.60;;;21.00;45.30;;;20.12;35.28;98580.03;5088586;28;20460;-76
2022/05/08 10:14:33;;;;;;;3.83;3.53;;;20.80;45.20;;;20.12;34.09;98574.56;5091869;28;20450;-75
2022/05/08 10:17:05;;;;;;;4.20;3.40;;;20.90;44.80;;;20.10;33.94;98572.09;5092433;28;21062;-80
2022/05/08 10:19:57;;;;;;;3.70;3.40;;;20.90;44.20;;;20.31;33.38;98571.38;5091172;28;20463;-81
2022/05/08 10:22:27;;;;;;;4.70;3.70;;;21.10;44.10;;;20.35;32.71;98567.84;5089036;28;20435;-81
2022/05/08 10:25:16;;;;;;;3.93;3.50;;;21.20;43.60;;;20.80;32.92;98556.50;5082027;28;20450;-80
2022/05/08 10:28:06;;;;;;;3.50;3.13;;;21.50;44.00;;;20.70;33.27;98562.78;5099391;28;20458;-81
2022/05/08 10:30:34;;;;;;;4.27;3.87;;;21.60;44.10;;;21.23;32.69;98564.59;5083122;28;20475;-79
2022/05/08 10:33:02;;;;;;;4.17;3.77;;;21.80;44.40;;;21.22;32.54;98555.53;5087606;28;20460;-80
2022/05/08 10:35:32;;;;;;;4.37;3.73;;;22.00;44.00;;;21.25;33.75;98556.06;5086305;28;21210;-82
2022/05/08 10:38:25;;;;;;;4.50;4.10;;;22.20;44.80;;;21.43;33.26;98530.00;5089986;28;20460;-80
2022/05/08 10:40:55;;;;;;;4.47;4.07;;;22.40;45.30;;;21.28;33.80;98556.34;5086860;28;20446;-81
2022/05/08 10:43:32;;;;;;;3.90;3.60;;;22.20;44.70;;;21.89;32.85;98545.66;5088774;28;20488;-80
2022/05/08 10:46:27;;;;;;;5.60;3.27;;;22.50;44.80;;;22.23;31.77;98539.53;5088709;28;20466;-81
2022/05/08 10:48:59;;;;;;;4.40;4.00;;;22.80;44.20;;;22.23;31.96;98547.78;5077054;28;20526;-82
2022/05/08 10:51:26;;;;;;;4.33;3.93;;;22.90;44.10;;;21.93;32.93;98552.25;5085855;28;20478;-82